createdAt,value
2017-07-26T00:01:41.733Z,92.00
2017-07-26T00:04:09.269Z,91.90
2017-07-26T00:06:37.728Z,92.00
2017-07-26T00:09:05.309Z,91.90
2017-07-26T00:11:33.613Z,92.00
2017-07-26T00:14:01.513Z,91.90
2017-07-26T00:16:29.057Z,92.00
2017-07-26T00:18:56.597Z,92.00
2017-07-26T00:21:24.317Z,92.00
2017-07-26T00:23:52.044Z,91.90
2017-07-26T00:26:19.572Z,91.90
2017-07-26T00:28:48.196Z,91.90
2017-07-26T00:31:15.738Z,91.90
2017-07-26T00:33:43.273Z,91.90
2017-07-26T00:36:10.848Z,91.90
2017-07-26T00:38:38.401Z,91.90
2017-07-26T00:41:06.169Z,91.90
2017-07-26T00:43:33.713Z,92.00
2017-07-26T00:46:02.057Z,92.00
2017-07-26T00:48:29.633Z,92.00
2017-07-26T00:50:57.465Z,92.00
2017-07-26T00:53:25.327Z,92.00
2017-07-26T00:55:52.870Z,92.00
2017-07-26T00:58:20.406Z,92.10
2017-07-26T01:00:48.421Z,92.10
2017-07-26T01:03:15.973Z,92.10
2017-07-26T01:05:43.525Z,92.10
2017-07-26T01:08:11.109Z,92.10
2017-07-26T01:10:38.680Z,92.10
2017-07-26T01:13:06.218Z,92.10
2017-07-26T01:15:34.314Z,92.10
2017-07-26T01:18:01.853Z,92.10
2017-07-26T01:20:29.388Z,92.10
2017-07-26T01:22:57.009Z,92.10
2017-07-26T01:25:24.589Z,92.10
2017-07-26T01:27:53.229Z,92.20
2017-07-26T01:30:20.765Z,92.10
2017-07-26T01:32:48.305Z,92.10
2017-07-26T01:35:16.845Z,92.10
2017-07-26T01:37:44.381Z,92.10
2017-07-26T01:40:12.269Z,92.10
2017-07-26T01:42:39.813Z,92.10
2017-07-26T01:45:07.354Z,92.10
2017-07-26T01:47:34.931Z,92.10
2017-07-26T01:50:03.016Z,92.10
2017-07-26T01:52:30.548Z,92.20
2017-07-26T01:54:58.091Z,92.20
2017-07-26T01:57:25.904Z,92.20
2017-07-26T01:59:53.449Z,92.20
2017-07-26T02:02:21.024Z,92.20
2017-07-26T02:04:48.888Z,92.20
2017-07-26T02:07:16.429Z,92.20
2017-07-26T02:09:44.022Z,92.20
2017-07-26T02:12:11.563Z,92.20
2017-07-26T02:14:39.532Z,92.30
2017-07-26T02:17:07.060Z,92.30
2017-07-26T02:19:34.608Z,92.30
2017-07-26T02:22:03.137Z,92.30
2017-07-26T02:24:30.675Z,92.30
2017-07-26T02:26:58.257Z,92.30
2017-07-26T02:29:25.783Z,92.30
2017-07-26T02:31:53.356Z,92.30
2017-07-26T02:34:20.897Z,92.30
2017-07-26T02:36:48.864Z,92.30
2017-07-26T02:39:16.401Z,92.30
2017-07-26T02:41:43.940Z,92.30
2017-07-26T02:44:11.665Z,92.40
2017-07-26T02:46:39.241Z,92.40
2017-07-26T02:49:06.777Z,92.40
2017-07-26T02:51:34.689Z,92.40
2017-07-26T02:54:02.228Z,92.40
2017-07-26T02:56:29.768Z,92.40
2017-07-26T02:58:59.816Z,92.40
2017-07-26T03:01:27.354Z,92.40
2017-07-26T03:03:55.313Z,92.40
2017-07-26T03:06:22.856Z,92.40
2017-07-26T03:08:51.284Z,92.40
2017-07-26T03:11:18.816Z,92.40
2017-07-26T03:13:46.420Z,92.40
2017-07-26T03:16:13.950Z,92.40
2017-07-26T03:18:41.490Z,92.40
2017-07-26T03:21:09.596Z,92.40
2017-07-26T03:23:37.133Z,92.40
2017-07-26T03:26:04.668Z,92.40
2017-07-26T03:28:33.073Z,92.40
2017-07-26T03:31:00.650Z,92.40
2017-07-26T03:33:28.229Z,92.40
2017-07-26T03:35:55.770Z,92.50
2017-07-26T03:38:23.844Z,92.40
2017-07-26T03:40:51.387Z,92.50
2017-07-26T03:43:19.016Z,92.50
2017-07-26T03:45:48.581Z,92.50
2017-07-26T03:48:16.117Z,92.50
2017-07-26T03:50:43.696Z,92.50
2017-07-26T03:53:11.269Z,92.50
2017-07-26T03:55:38.800Z,92.50
2017-07-26T03:58:07.912Z,92.50
2017-07-26T04:00:35.585Z,92.50
2017-07-26T04:03:03.116Z,92.50
2017-07-26T04:05:33.573Z,92.50
2017-07-26T04:08:01.108Z,92.50
2017-07-26T04:10:28.645Z,92.50
2017-07-26T04:12:56.222Z,92.50
2017-07-26T04:15:26.517Z,92.40
2017-07-26T04:17:54.817Z,92.50
2017-07-26T04:20:22.353Z,92.40
2017-07-26T04:22:50.694Z,92.50
2017-07-26T04:25:18.763Z,92.50
2017-07-26T04:27:46.297Z,92.50
2017-07-26T04:30:13.837Z,92.50
2017-07-26T04:32:41.649Z,92.50
2017-07-26T04:35:09.181Z,92.50
2017-07-26T04:37:36.770Z,92.50
2017-07-26T04:40:04.312Z,92.50
2017-07-26T04:42:31.893Z,92.80
2017-07-26T04:44:59.424Z,92.50
2017-07-26T04:47:27.010Z,92.40
2017-07-26T04:49:54.813Z,92.40
2017-07-26T04:52:23.356Z,92.50
2017-07-26T04:54:50.902Z,92.40
2017-07-26T04:57:18.504Z,92.40
2017-07-26T04:59:46.857Z,92.50
2017-07-26T05:02:14.401Z,92.50
2017-07-26T05:04:43.395Z,92.40
2017-07-26T05:07:10.930Z,92.50
2017-07-26T05:09:38.585Z,92.50
2017-07-26T05:12:06.130Z,92.40
2017-07-26T05:14:34.480Z,92.40
2017-07-26T05:17:02.015Z,92.40
2017-07-26T05:19:29.757Z,92.40
2017-07-26T05:21:57.290Z,92.40
2017-07-26T05:24:25.610Z,92.40
2017-07-26T05:26:53.262Z,92.30
2017-07-26T05:29:20.808Z,92.30
2017-07-26T05:31:48.388Z,92.30
2017-07-26T05:34:15.969Z,92.30
2017-07-26T05:36:43.510Z,92.30
2017-07-26T05:39:11.093Z,92.30
2017-07-26T05:41:38.638Z,92.30
2017-07-26T05:44:06.304Z,92.30
2017-07-26T05:46:33.893Z,92.30
2017-07-26T05:49:01.433Z,92.30
2017-07-26T05:51:31.335Z,92.30
2017-07-26T05:53:58.956Z,92.30
2017-07-26T05:56:27.269Z,92.30
2017-07-26T05:58:54.844Z,92.20
2017-07-26T06:01:22.389Z,92.30
2017-07-26T06:03:50.106Z,92.30
2017-07-26T06:06:17.640Z,92.20
2017-07-26T06:08:45.222Z,92.20
2017-07-26T06:11:12.762Z,92.20
2017-07-26T06:13:40.345Z,92.20
2017-07-26T06:16:07.880Z,92.10
2017-07-26T06:18:35.849Z,92.10
2017-07-26T06:21:03.388Z,92.00
2017-07-26T06:23:30.934Z,91.90
2017-07-26T06:25:58.864Z,91.90
2017-07-26T06:28:26.417Z,91.80
2017-07-26T06:30:54.469Z,91.90
2017-07-26T06:33:22.010Z,91.80
2017-07-26T06:35:49.552Z,91.80
2017-07-26T06:38:17.131Z,91.80
2017-07-26T06:40:44.669Z,91.60
2017-07-26T06:43:12.885Z,91.50
2017-07-26T06:45:40.427Z,91.60
2017-07-26T06:48:07.973Z,91.40
2017-07-26T06:50:35.565Z,91.50
2017-07-26T06:53:03.788Z,91.50
2017-07-26T06:55:32.243Z,91.50
2017-07-26T06:57:59.829Z,91.50
2017-07-26T07:00:27.398Z,91.40
2017-07-26T07:02:55.330Z,91.30
2017-07-26T07:05:22.873Z,91.30
2017-07-26T07:07:50.415Z,91.10
2017-07-26T07:10:17.993Z,91.10
2017-07-26T07:12:45.532Z,91.10
2017-07-26T07:15:13.449Z,91.00
2017-07-26T07:17:41.031Z,90.90
2017-07-26T07:20:09.330Z,90.80
2017-07-26T07:22:37.073Z,90.70
2017-07-26T07:25:05.380Z,90.80
2017-07-26T07:27:32.916Z,90.80
2017-07-26T07:30:00.940Z,90.70
2017-07-26T07:32:28.500Z,90.60
2017-07-26T07:34:56.045Z,90.60
2017-07-26T07:37:24.271Z,90.50
2017-07-26T07:39:51.829Z,90.40
2017-07-26T07:42:20.129Z,90.30
2017-07-26T07:44:47.782Z,90.30
2017-07-26T07:47:15.363Z,90.40
2017-07-26T07:49:42.940Z,90.40
2017-07-26T07:52:10.519Z,90.40
2017-07-26T07:54:38.884Z,90.30
2017-07-26T07:57:06.610Z,90.20
2017-07-26T07:59:34.199Z,90.00
2017-07-26T08:02:01.741Z,90.00
2017-07-26T08:04:29.648Z,89.70
2017-07-26T08:06:57.185Z,89.80
2017-07-26T08:09:24.725Z,90.00
2017-07-26T08:11:57.242Z,90.00
2017-07-26T08:14:25.097Z,90.00
2017-07-26T08:16:52.648Z,90.00
2017-07-26T08:19:20.217Z,90.00
2017-07-26T08:21:47.829Z,89.50
2017-07-26T08:24:15.426Z,89.30
2017-07-26T08:26:43.010Z,89.60
2017-07-26T08:29:10.558Z,88.90
2017-07-26T08:31:38.432Z,88.20
2017-07-26T08:34:05.973Z,88.00
2017-07-26T08:36:33.569Z,88.20
2017-07-26T08:39:01.115Z,88.30
2017-07-26T08:41:29.492Z,88.10
2017-07-26T08:43:57.039Z,87.90
2017-07-26T08:46:24.605Z,88.00
2017-07-26T08:48:52.489Z,88.00
2017-07-26T08:51:20.677Z,87.70
2017-07-26T08:53:48.222Z,87.80
2017-07-26T08:56:15.762Z,88.00
2017-07-26T08:58:43.340Z,88.20
2017-07-26T09:01:10.921Z,87.60
2017-07-26T09:03:38.505Z,86.50
2017-07-26T09:06:06.818Z,85.60
2017-07-26T09:08:34.589Z,85.50
2017-07-26T09:11:02.140Z,85.00
2017-07-26T09:13:32.291Z,84.80
2017-07-26T09:16:00.633Z,84.50
2017-07-26T09:18:28.173Z,84.30
2017-07-26T09:20:55.825Z,84.30
2017-07-26T09:23:24.145Z,84.10
2017-07-26T09:25:55.615Z,84.10
2017-07-26T09:28:23.241Z,83.50
2017-07-26T09:30:50.781Z,82.70
2017-07-26T09:33:19.099Z,82.80
2017-07-26T09:35:46.684Z,82.70
2017-07-26T09:38:15.345Z,82.40
2017-07-26T09:40:43.213Z,82.40
2017-07-26T09:43:10.761Z,81.80
2017-07-26T09:45:42.218Z,80.70
2017-07-26T09:48:09.818Z,80.30
2017-07-26T09:50:37.369Z,80.10
2017-07-26T09:53:05.298Z,79.70
2017-07-26T09:55:33.079Z,79.60
2017-07-26T09:58:00.629Z,79.50
2017-07-26T10:00:28.621Z,79.20
2017-07-26T10:02:56.165Z,78.40
2017-07-26T10:05:23.723Z,77.90
2017-07-26T10:07:51.309Z,77.40
2017-07-26T10:10:19.584Z,77.40
2017-07-26T10:12:47.129Z,77.80
2017-07-26T10:15:14.668Z,77.50
2017-07-26T10:17:42.254Z,76.30
2017-07-26T10:20:09.844Z,76.20
2017-07-26T10:22:37.387Z,77.00
2017-07-26T10:25:05.061Z,77.10
2017-07-26T10:27:32.605Z,76.80
2017-07-26T10:30:00.270Z,76.50
2017-07-26T10:32:27.993Z,76.60
2017-07-26T10:34:55.604Z,76.30
2017-07-26T10:37:23.565Z,76.00
2017-07-26T10:39:51.102Z,75.40
2017-07-26T10:42:18.643Z,75.20
2017-07-26T10:44:46.229Z,75.40
2017-07-26T10:47:13.767Z,75.30
2017-07-26T10:49:41.782Z,75.60
2017-07-26T10:52:09.326Z,75.40
2017-07-26T10:54:36.867Z,75.00
2017-07-26T10:57:04.756Z,75.40
2017-07-26T10:59:32.329Z,75.30
2017-07-26T11:01:59.873Z,74.80
2017-07-26T11:04:27.605Z,74.70
2017-07-26T11:06:55.143Z,73.80
2017-07-26T11:09:22.761Z,72.80
2017-07-26T11:11:50.313Z,71.90
2017-07-26T11:14:21.556Z,71.60
2017-07-26T11:16:49.197Z,71.80
2017-07-26T11:19:20.486Z,71.80
2017-07-26T11:21:48.235Z,70.90
2017-07-26T11:24:15.770Z,69.60
2017-07-26T11:26:43.630Z,68.10
2017-07-26T11:29:11.215Z,67.50
2017-07-26T11:31:39.110Z,67.40
2017-07-26T11:34:06.692Z,67.30
2017-07-26T11:36:34.226Z,67.20
2017-07-26T11:39:01.764Z,67.20
2017-07-26T11:41:29.655Z,66.90
2017-07-26T11:43:57.238Z,66.50
2017-07-26T11:46:24.801Z,66.00
2017-07-26T11:48:52.337Z,65.80
2017-07-26T11:51:19.905Z,65.30
2017-07-26T11:53:47.437Z,64.90
2017-07-26T11:56:16.603Z,63.50
2017-07-26T11:58:44.452Z,62.40
2017-07-26T12:01:11.989Z,61.80
2017-07-26T12:03:39.564Z,61.00
2017-07-26T12:06:07.137Z,60.70
2017-07-26T12:08:35.441Z,60.40
2017-07-26T12:11:03.053Z,60.40
2017-07-26T12:13:30.585Z,60.40
2017-07-26T12:15:58.353Z,60.50
2017-07-26T12:18:26.986Z,60.20
2017-07-26T12:20:55.350Z,60.60
2017-07-26T12:23:22.903Z,60.60
2017-07-26T12:25:51.230Z,60.30
2017-07-26T12:28:18.835Z,60.30
2017-07-26T12:30:46.366Z,61.20
2017-07-26T12:33:14.073Z,62.10
2017-07-26T12:35:41.610Z,62.70
2017-07-26T12:38:09.257Z,63.00
2017-07-26T12:40:36.801Z,63.50
2017-07-26T12:43:08.081Z,63.50
2017-07-26T12:45:35.626Z,63.40
2017-07-26T12:48:03.236Z,63.10
2017-07-26T12:50:34.473Z,63.30
2017-07-26T12:53:02.029Z,63.30
2017-07-26T12:55:29.673Z,63.10
2017-07-26T12:57:57.822Z,63.40
2017-07-26T13:00:25.398Z,63.90
2017-07-26T13:02:52.933Z,63.40
2017-07-26T13:05:21.345Z,64.10
2017-07-26T13:07:48.980Z,64.90
2017-07-26T13:10:16.521Z,64.80
2017-07-26T13:12:44.254Z,64.90
2017-07-26T13:15:11.865Z,64.50
2017-07-26T13:17:39.423Z,65.00
2017-07-26T13:20:07.001Z,65.50
2017-07-26T13:22:34.537Z,65.80
2017-07-26T13:25:02.069Z,65.30
2017-07-26T13:27:35.062Z,64.30
2017-07-26T13:30:03.376Z,63.50
2017-07-26T13:32:30.920Z,63.40
2017-07-26T13:34:58.502Z,63.20
2017-07-26T13:37:26.282Z,62.60
2017-07-26T13:39:53.824Z,62.20
2017-07-26T13:42:21.553Z,62.10
2017-07-26T13:44:49.853Z,62.30
2017-07-26T13:47:17.616Z,62.20
2017-07-26T13:49:45.201Z,61.80
2017-07-26T13:52:13.784Z,61.80
2017-07-26T13:54:41.327Z,61.80
2017-07-26T13:57:08.985Z,62.10
2017-07-26T13:59:36.524Z,61.00
2017-07-26T14:02:05.759Z,60.60
2017-07-26T14:04:33.404Z,60.30
2017-07-26T14:07:00.949Z,59.70
2017-07-26T14:09:28.526Z,59.30
2017-07-26T14:11:57.264Z,59.20
2017-07-26T14:14:24.809Z,58.70
2017-07-26T14:16:52.352Z,58.10
2017-07-26T14:19:20.345Z,57.90
2017-07-26T14:21:47.877Z,57.90
2017-07-26T14:24:15.443Z,57.70
2017-07-26T14:26:43.025Z,57.80
2017-07-26T14:29:10.555Z,57.70
2017-07-26T14:31:38.090Z,58.10
2017-07-26T14:34:05.729Z,58.10
2017-07-26T14:36:33.438Z,57.60
2017-07-26T14:39:01.086Z,57.90
2017-07-26T14:41:28.685Z,57.80
2017-07-26T14:43:56.250Z,57.40
2017-07-26T14:46:23.826Z,56.70
2017-07-26T14:48:51.370Z,56.40
2017-07-26T14:51:19.053Z,55.60
2017-07-26T14:53:47.252Z,55.40
2017-07-26T14:56:14.834Z,55.20
2017-07-26T14:58:45.022Z,55.70
2017-07-26T15:01:12.557Z,55.40
2017-07-26T15:03:40.125Z,54.80
2017-07-26T15:06:07.653Z,54.60
2017-07-26T15:08:35.729Z,54.40
2017-07-26T15:11:03.259Z,54.30
2017-07-26T15:13:30.801Z,54.30
2017-07-26T15:15:59.300Z,54.30
2017-07-26T15:18:26.833Z,54.30
2017-07-26T15:20:55.177Z,54.90
2017-07-26T15:23:22.715Z,54.80
2017-07-26T15:25:50.539Z,55.10
2017-07-26T15:28:18.849Z,55.80
2017-07-26T15:30:46.377Z,55.70
2017-07-26T15:33:14.729Z,55.50
2017-07-26T15:35:42.267Z,55.60
2017-07-26T15:38:09.845Z,55.90
2017-07-26T15:40:37.382Z,55.80
2017-07-26T15:43:06.801Z,55.70
2017-07-26T15:45:34.349Z,55.60
2017-07-26T15:48:01.883Z,55.50
2017-07-26T15:50:29.494Z,55.80
2017-07-26T15:52:57.026Z,56.20
2017-07-26T15:55:26.506Z,56.30
2017-07-26T15:57:54.514Z,56.60
2017-07-26T16:00:22.049Z,57.00
2017-07-26T16:02:49.576Z,57.10
2017-07-26T16:05:19.591Z,57.20
2017-07-26T16:07:47.900Z,57.30
2017-07-26T16:10:15.433Z,57.10
2017-07-26T16:12:43.781Z,56.20
2017-07-26T16:15:11.742Z,56.10
2017-07-26T16:17:39.273Z,56.30
2017-07-26T16:20:06.802Z,56.40
2017-07-26T16:22:35.268Z,55.70
2017-07-26T16:25:02.838Z,55.60
2017-07-26T16:27:31.138Z,54.60
2017-07-26T16:30:00.282Z,54.80
2017-07-26T16:32:27.828Z,54.30
2017-07-26T16:34:55.362Z,53.30
2017-07-26T16:37:23.090Z,52.70
2017-07-26T16:39:51.548Z,52.50
2017-07-26T16:42:19.076Z,52.20
2017-07-26T16:44:46.617Z,52.30
2017-07-26T16:47:14.196Z,52.10
2017-07-26T16:49:41.789Z,51.90
2017-07-26T16:52:09.323Z,51.50
2017-07-26T16:54:36.853Z,51.10
2017-07-26T16:57:04.769Z,51.00
2017-07-26T16:59:32.604Z,50.60
2017-07-26T17:02:00.138Z,50.50
2017-07-26T17:04:28.465Z,51.00
2017-07-26T17:06:56.036Z,51.00
2017-07-26T17:09:23.566Z,51.20
2017-07-26T17:11:51.253Z,51.60
2017-07-26T17:14:18.790Z,52.00
2017-07-26T17:16:47.417Z,52.70
2017-07-26T17:19:15.138Z,53.10
2017-07-26T17:21:47.548Z,53.40
2017-07-26T17:24:15.157Z,54.00
2017-07-26T17:26:42.693Z,54.30
2017-07-26T17:29:10.230Z,54.80
2017-07-26T17:31:37.834Z,55.20
2017-07-26T17:34:05.380Z,55.30
2017-07-26T17:36:33.685Z,55.90
2017-07-26T17:39:01.450Z,55.80
2017-07-26T17:41:28.993Z,55.70
2017-07-26T17:43:56.729Z,55.80
2017-07-26T17:46:24.261Z,56.00
2017-07-26T17:48:51.832Z,56.30
2017-07-26T17:51:19.801Z,56.80
2017-07-26T17:53:47.657Z,57.20
2017-07-26T17:56:15.213Z,57.90
2017-07-26T17:58:42.854Z,58.20
2017-07-26T18:01:10.389Z,58.70
2017-07-26T18:03:38.729Z,59.00
2017-07-26T18:06:06.341Z,59.00
2017-07-26T18:08:33.917Z,59.30
2017-07-26T18:11:01.456Z,59.60
2017-07-26T18:13:29.033Z,59.90
2017-07-26T18:15:56.618Z,60.40
2017-07-26T18:18:24.337Z,61.60
2017-07-26T18:20:51.877Z,61.30
2017-07-26T18:23:19.456Z,61.60
2017-07-26T18:25:46.993Z,61.90
2017-07-26T18:28:14.537Z,62.30
2017-07-26T18:30:42.169Z,62.80
2017-07-26T18:33:09.701Z,63.90
2017-07-26T18:35:37.333Z,63.40
2017-07-26T18:38:04.865Z,63.80
2017-07-26T18:40:32.437Z,64.00
2017-07-26T18:42:59.986Z,64.20
2017-07-26T18:45:27.561Z,64.40
2017-07-26T18:47:55.132Z,64.70
2017-07-26T18:50:22.697Z,64.90
2017-07-26T18:52:50.347Z,65.30
2017-07-26T18:55:18.818Z,65.60
2017-07-26T18:57:46.354Z,65.70
2017-07-26T19:00:13.947Z,65.90
2017-07-26T19:02:41.473Z,66.10
2017-07-26T19:05:09.374Z,66.30
2017-07-26T19:07:36.917Z,66.40
2017-07-26T19:10:04.453Z,66.60
2017-07-26T19:12:32.102Z,67.00
2017-07-26T19:14:59.648Z,67.40
2017-07-26T19:17:27.952Z,67.90
2017-07-26T19:19:55.822Z,67.80
2017-07-26T19:22:23.366Z,68.00
2017-07-26T19:24:50.909Z,68.20
2017-07-26T19:27:24.381Z,69.50
2017-07-26T19:29:51.929Z,68.70
2017-07-26T19:32:20.931Z,68.90
2017-07-26T19:34:48.487Z,69.20
2017-07-26T19:37:16.122Z,69.40
2017-07-26T19:39:43.669Z,69.60
2017-07-26T19:42:13.319Z,69.90
2017-07-26T19:44:40.982Z,70.10
2017-07-26T19:47:08.525Z,70.20
2017-07-26T19:49:36.761Z,70.60
2017-07-26T19:52:05.078Z,71.50
2017-07-26T19:54:33.449Z,71.50
2017-07-26T19:57:05.129Z,71.90
2017-07-26T19:59:32.668Z,72.10
2017-07-26T20:02:00.627Z,72.40
2017-07-26T20:04:28.186Z,72.60
2017-07-26T20:06:55.733Z,72.90
2017-07-26T20:09:23.325Z,73.20
2017-07-26T20:11:51.919Z,73.50
2017-07-26T20:14:21.011Z,73.80
2017-07-26T20:16:48.573Z,73.80
2017-07-26T20:19:16.121Z,74.00
2017-07-26T20:21:43.777Z,74.10
2017-07-26T20:24:11.329Z,74.20
2017-07-26T20:26:38.922Z,74.30
2017-07-26T20:29:06.801Z,74.50
2017-07-26T20:31:34.348Z,74.60
2017-07-26T20:34:01.910Z,74.90
2017-07-26T20:36:29.886Z,75.10
2017-07-26T20:38:57.418Z,75.20
2017-07-26T20:41:24.964Z,75.40
2017-07-26T20:43:53.030Z,75.60
2017-07-26T20:46:20.578Z,75.70
2017-07-26T20:48:48.893Z,75.90
2017-07-26T20:51:16.513Z,75.90
2017-07-26T20:53:44.829Z,76.20
2017-07-26T20:56:12.377Z,76.00
2017-07-26T20:58:40.697Z,76.20
2017-07-26T21:01:08.228Z,76.30
2017-07-26T21:03:35.777Z,76.40
2017-07-26T21:06:03.784Z,76.60
2017-07-26T21:08:31.330Z,76.60
2017-07-26T21:10:58.874Z,76.70
2017-07-26T21:13:26.496Z,77.60
2017-07-26T21:15:54.805Z,77.10
2017-07-26T21:18:22.358Z,77.00
2017-07-26T21:20:50.017Z,77.00
2017-07-26T21:23:17.553Z,76.90
2017-07-26T21:25:45.140Z,76.70
2017-07-26T21:28:12.749Z,76.60
2017-07-26T21:30:40.298Z,76.70
2017-07-26T21:33:07.846Z,76.90
2017-07-26T21:35:35.711Z,76.70
2017-07-26T21:38:03.257Z,76.60
2017-07-26T21:40:30.805Z,76.50
2017-07-26T21:42:58.589Z,76.50
2017-07-26T21:45:26.136Z,76.70
2017-07-26T21:47:54.041Z,76.80
2017-07-26T21:50:21.576Z,76.90
2017-07-26T21:52:49.157Z,77.10
2017-07-26T21:55:16.994Z,77.20
2017-07-26T21:57:44.578Z,76.90
2017-07-26T22:00:17.885Z,76.40
2017-07-26T22:02:45.429Z,76.40
2017-07-26T22:05:12.973Z,76.40
2017-07-26T22:07:40.553Z,76.80
2017-07-26T22:10:08.157Z,77.10
2017-07-26T22:12:36.218Z,77.40
2017-07-26T22:15:03.761Z,77.50
2017-07-26T22:17:31.417Z,77.80
2017-07-26T22:19:59.001Z,78.10
2017-07-26T22:22:26.539Z,78.50
2017-07-26T22:24:56.208Z,78.80
2017-07-26T22:27:23.741Z,79.10
2017-07-26T22:29:51.338Z,79.00
2017-07-26T22:32:18.886Z,79.10
2017-07-26T22:34:46.425Z,79.00
2017-07-26T22:37:14.826Z,78.60
2017-07-26T22:39:42.368Z,79.20
2017-07-26T22:42:10.400Z,79.30
2017-07-26T22:44:37.940Z,79.50
2017-07-26T22:47:05.481Z,79.80
2017-07-26T22:49:33.053Z,80.00
2017-07-26T22:52:00.585Z,80.00
2017-07-26T22:54:29.321Z,80.00
2017-07-26T22:56:56.854Z,80.00
2017-07-26T22:59:24.440Z,80.00
2017-07-26T23:01:52.017Z,80.10
2017-07-26T23:04:19.560Z,80.10
2017-07-26T23:06:47.140Z,80.20
2017-07-26T23:09:14.694Z,80.40
2017-07-26T23:11:42.271Z,80.60
2017-07-26T23:14:09.817Z,80.90
2017-07-26T23:16:37.403Z,81.10
2017-07-26T23:19:04.989Z,81.20
2017-07-26T23:21:32.536Z,81.40
2017-07-26T23:24:00.850Z,82.10
2017-07-26T23:26:28.437Z,82.00
2017-07-26T23:28:55.992Z,82.30
2017-07-26T23:31:23.582Z,82.60
2017-07-26T23:33:51.164Z,82.80
2017-07-26T23:36:19.508Z,83.40
2017-07-26T23:38:47.049Z,83.40
2017-07-26T23:41:15.041Z,83.50
2017-07-26T23:43:42.581Z,83.40
2017-07-26T23:46:10.133Z,83.70
2017-07-26T23:48:37.717Z,83.90
2017-07-26T23:51:05.274Z,84.00
2017-07-26T23:53:33.005Z,84.00
2017-07-26T23:56:05.509Z,84.20
2017-07-26T23:58:33.049Z,84.40
